Time;durP1;ratioP1;P1;durP2;ratioP2;P2;SDS_P1;SDS_P2;PMS_P1;PMS_P2;Temp;Humidity;BMP_temperature;BMP_pressure;BME280_temperature;BME280_humidity;BME280_pressure;Samples;Min_cycle;Max_cycle;Signal;HPM_P1;HPM_P2
2022/03/27 00:00:07;;;;;;;8.93;5.25;;;;;;;;;;5137682;27;20060;-82
2022/03/27 00:02:34;;;;;;;9.10;5.05;;;;;;;;;;5117322;27;20040;-82
2022/03/27 00:05:00;;;;;;;8.82;5.82;;;;;;;;;;5120455;27;20055;-82
2022/03/27 00:07:27;;;;;;;9.98;5.57;;;;;;;;;;5129339;27;20031;-82
2022/03/27 00:09:53;;;;;;;10.30;5.90;;;;;;;;;;5139997;27;20056;-82
2022/03/27 00:12:20;;;;;;;10.07;5.95;;;;;;;;;;5121650;27;20078;-82
2022/03/27 00:14:46;;;;;;;10.57;5.78;;;;;;;;;;5124198;27;20052;-82
2022/03/27 00:17:13;;;;;;;10.18;6.22;;;;;;;;;;5114381;27;20058;-82
2022/03/27 00:19:39;;;;;;;11.00;7.15;;;;;;;;;;5123378;27;20583;-83
2022/03/27 00:22:06;;;;;;;10.52;6.57;;;;;;;;;;5112027;27;20056;-82
2022/03/27 00:24:32;;;;;;;11.05;6.55;;;;;;;;;;5138899;27;20090;-82
2022/03/27 00:26:58;;;;;;;14.18;7.57;;;;;;;;;;5122496;27;20035;-82
2022/03/27 00:29:25;;;;;;;13.20;7.88;;;;;;;;;;5113888;27;20051;-82
2022/03/27 00:31:51;;;;;;;12.30;6.88;;;;;;;;;;5136736;27;20087;-82
2022/03/27 00:34:19;;;;;;;12.82;7.75;;;;;;;;;;5106986;27;20054;-82
2022/03/27 00:36:45;;;;;;;14.32;8.35;;;;;;;;;;5114241;28;20105;-82
2022/03/27 00:39:12;;;;;;;12.10;7.47;;;;;;;;;;5119766;28;20048;-82
2022/03/27 00:41:38;;;;;;;14.35;7.93;;;;;;;;;;5107405;27;20039;-82
2022/03/27 00:44:05;;;;;;;13.45;8.32;;;;;;;;;;5105058;27;20074;-82
2022/03/27 00:46:31;;;;;;;15.07;7.78;;;;;;;;;;5121173;27;20390;-82
2022/03/27 00:48:58;;;;;;;12.43;7.22;;;;;;;;;;5140183;27;20057;-83
2022/03/27 00:51:24;;;;;;;11.05;6.97;;;;;;;;;;5121196;27;20137;-82
2022/03/27 00:53:50;;;;;;;12.32;7.35;;;;;;;;;;5111596;28;20060;-82
2022/03/27 00:56:17;;;;;;;13.00;7.72;;;;;;;;;;5104462;27;20052;-82
2022/03/27 00:58:43;;;;;;;12.45;7.00;;;;;;;;;;5120899;27;20048;-82
2022/03/27 01:01:09;;;;;;;15.95;8.05;;;;;;;;;;5139556;27;20547;-82
2022/03/27 01:03:37;;;;;;;12.50;7.45;;;;;;;;;;5116225;27;20055;-82
2022/03/27 01:06:04;;;;;;;14.02;7.78;;;;;;;;;;5119795;27;20113;-82
2022/03/27 01:11:20;;;;;;;15.45;8.32;;;;;;;;;;5136768;27;20051;-82
2022/03/27 01:13:52;;;;;;;15.20;8.45;;;;;;;;;;5111425;28;20394;-82
2022/03/27 01:16:32;;;;;;;14.48;7.57;;;;;;;;;;5113235;27;20055;-82
2022/03/27 01:19:00;;;;;;;12.35;7.63;;;;;;;;;;5139029;27;20028;-82
2022/03/27 01:21:26;;;;;;;13.90;7.57;;;;;;;;;;5120851;27;20062;-82
2022/03/27 01:23:53;;;;;;;13.55;7.90;;;;;;;;;;5136269;27;20052;-82
2022/03/27 01:26:20;;;;;;;14.63;7.72;;;;;;;;;;5123517;27;20048;-82
2022/03/27 01:28:47;;;;;;;13.18;7.82;;;;;;;;;;5115900;27;20055;-82
2022/03/27 01:31:13;;;;;;;12.93;7.57;;;;;;;;;;5116587;27;20052;-82
2022/03/27 01:33:39;;;;;;;12.65;7.78;;;;;;;;;;5131425;27;20047;-82
2022/03/27 01:36:06;;;;;;;12.27;7.47;;;;;;;;;;5098966;28;20051;-82
2022/03/27 01:38:32;;;;;;;11.98;7.65;;;;;;;;;;5121199;27;20466;-82
2022/03/27 01:40:58;;;;;;;14.35;7.60;;;;;;;;;;5102288;27;20056;-82
2022/03/27 01:43:25;;;;;;;14.25;7.38;;;;;;;;;;5115375;27;20047;-82
2022/03/27 01:45:51;;;;;;;12.73;7.25;;;;;;;;;;5121107;27;20055;-82
2022/03/27 01:48:18;;;;;;;12.35;7.55;;;;;;;;;;5120675;27;20044;-82
2022/03/27 01:50:56;;;;;;;12.77;7.68;;;;;;;;;;5116224;27;20043;-82
2022/03/27 01:53:22;;;;;;;12.95;6.57;;;;;;;;;;5118503;27;20123;-82
2022/03/27 01:55:48;;;;;;;12.32;6.50;;;;;;;;;;5101136;28;20121;-82
2022/03/27 01:58:15;;;;;;;13.60;6.28;;;;;;;;;;5135849;27;20573;-82
2022/03/27 02:00:44;;;;;;;14.00;7.15;;;;;;;;;;5124929;27;20188;-82
2022/03/27 02:03:11;;;;;;;13.50;7.80;;;;;;;;;;5108019;27;20056;-82
2022/03/27 02:05:37;;;;;;;13.20;6.93;;;;;;;;;;5138506;27;20052;-82
2022/03/27 02:08:04;;;;;;;14.75;7.90;;;;;;;;;;5137936;27;20073;-82
2022/03/27 02:10:50;;;;;;;14.63;7.55;;;;;;;;;;5102360;28;20135;-82
2022/03/27 02:13:21;;;;;;;12.98;7.50;;;;;;;;;;5122462;27;20031;-82
2022/03/27 02:15:48;;;;;;;14.80;8.10;;;;;;;;;;5103892;28;20060;-82
2022/03/27 02:18:15;;;;;;;15.27;7.88;;;;;;;;;;5098687;27;20060;-82
2022/03/27 02:20:43;;;;;;;13.13;7.10;;;;;;;;;;5101324;28;20048;-82
2022/03/27 02:23:10;;;;;;;15.20;7.85;;;;;;;;;;5118672;27;20101;-82
2022/03/27 02:25:36;;;;;;;13.82;7.88;;;;;;;;;;5119338;27;20106;-82
2022/03/27 02:28:03;;;;;;;12.82;7.03;;;;;;;;;;5116195;27;20059;-82
2022/03/27 02:30:29;;;;;;;13.30;7.45;;;;;;;;;;5100013;27;20088;-81
2022/03/27 02:32:56;;;;;;;12.38;6.40;;;;;;;;;;5114548;27;21002;-82
2022/03/27 02:35:23;;;;;;;10.98;6.15;;;;;;;;;;5101871;28;20109;-82
2022/03/27 02:37:49;;;;;;;14.63;6.75;;;;;;;;;;5096278;28;20074;-82
2022/03/27 02:40:16;;;;;;;12.50;6.65;;;;;;;;;;5103570;27;20035;-82
2022/03/27 02:42:43;;;;;;;13.27;6.93;;;;;;;;;;5114584;27;20591;-82
2022/03/27 02:45:09;;;;;;;11.70;6.43;;;;;;;;;;5132455;27;20567;-82
2022/03/27 02:47:36;;;;;;;13.55;7.40;;;;;;;;;;5131613;27;20060;-82
2022/03/27 02:50:04;;;;;;;18.23;6.95;;;;;;;;;;5107158;28;20052;-82
2022/03/27 02:52:31;;;;;;;14.80;7.30;;;;;;;;;;5109165;27;20051;-82
2022/03/27 02:54:58;;;;;;;15.48;8.00;;;;;;;;;;5115636;27;20105;-82
2022/03/27 02:57:24;;;;;;;16.80;7.85;;;;;;;;;;5124694;27;20397;-82
2022/03/27 02:59:52;;;;;;;15.18;7.90;;;;;;;;;;5107653;27;20093;-82
2022/03/27 03:02:19;;;;;;;16.33;8.32;;;;;;;;;;5105781;28;20044;-82
2022/03/27 03:04:46;;;;;;;16.70;7.97;;;;;;;;;;5131503;27;20055;-82
2022/03/27 03:07:14;;;;;;;16.08;8.68;;;;;;;;;;5112732;28;20114;-82
2022/03/27 03:09:41;;;;;;;15.80;7.93;;;;;;;;;;5119709;27;20047;-82
2022/03/27 03:12:08;;;;;;;16.77;8.38;;;;;;;;;;5127471;27;20130;-82
2022/03/27 03:14:34;;;;;;;18.27;8.82;;;;;;;;;;5105214;27;20491;-82
2022/03/27 03:17:01;;;;;;;15.25;8.00;;;;;;;;;;5116154;27;20104;-82
2022/03/27 03:19:29;;;;;;;15.93;7.88;;;;;;;;;;5124524;27;20105;-83
2022/03/27 03:21:55;;;;;;;18.90;8.43;;;;;;;;;;5117599;27;20052;-82
2022/03/27 03:24:25;;;;;;;14.77;7.82;;;;;;;;;;5133641;27;20516;-82
2022/03/27 03:26:52;;;;;;;15.05;7.93;;;;;;;;;;5133866;27;20036;-82
2022/03/27 03:29:18;;;;;;;14.43;7.60;;;;;;;;;;5096215;28;20047;-82
2022/03/27 03:31:44;;;;;;;14.77;7.38;;;;;;;;;;5128177;27;20488;-82
2022/03/27 03:34:11;;;;;;;13.77;6.88;;;;;;;;;;5130584;27;20907;-82
2022/03/27 03:36:38;;;;;;;15.00;7.88;;;;;;;;;;5096286;28;20044;-82
2022/03/27 03:39:04;;;;;;;14.85;7.22;;;;;;;;;;5110264;27;20059;-82
2022/03/27 03:41:30;;;;;;;13.73;7.25;;;;;;;;;;5100696;27;20106;-82
2022/03/27 03:44:17;;;;;;;14.23;7.05;;;;;;;;;;5115498;28;20075;-82
2022/03/27 03:46:46;;;;;;;13.60;6.85;;;;;;;;;;5098372;28;20056;-82
2022/03/27 03:49:12;;;;;;;13.30;6.55;;;;;;;;;;5123439;27;20058;-82
2022/03/27 03:51:39;;;;;;;15.20;7.25;;;;;;;;;;5115632;27;20077;-82
2022/03/27 03:54:08;;;;;;;13.45;5.97;;;;;;;;;;5117577;27;20090;-82
2022/03/27 03:56:35;;;;;;;11.80;6.22;;;;;;;;;;5135498;27;20048;-82
2022/03/27 03:59:02;;;;;;;15.02;6.70;;;;;;;;;;5111669;27;20467;-82
2022/03/27 04:01:48;;;;;;;13.40;6.80;;;;;;;;;;5120222;27;20138;-82
2022/03/27 04:04:15;;;;;;;12.90;6.70;;;;;;;;;;5115627;27;20079;-82
2022/03/27 04:06:41;;;;;;;13.30;6.53;;;;;;;;;;5115991;27;20797;-82
2022/03/27 04:09:07;;;;;;;12.85;6.43;;;;;;;;;;5125864;27;20044;-82
2022/03/27 04:11:34;;;;;;;14.57;6.78;;;;;;;;;;5117664;27;20497;-82
2022/03/27 04:14:00;;;;;;;17.60;7.25;;;;;;;;;;5107242;28;20048;-82
2022/03/27 04:16:28;;;;;;;12.98;6.28;;;;;;;;;;5115992;28;20056;-82
2022/03/27 04:18:54;;;;;;;13.40;6.57;;;;;;;;;;5106063;27;20077;-82
2022/03/27 04:21:21;;;;;;;16.27;7.25;;;;;;;;;;5116497;27;20047;-82
2022/03/27 04:23:47;;;;;;;16.23;7.43;;;;;;;;;;5101645;28;20064;-82
2022/03/27 04:26:13;;;;;;;18.23;7.80;;;;;;;;;;5099645;28;20063;-82
2022/03/27 04:28:40;;;;;;;14.40;7.15;;;;;;;;;;5095713;28;20102;-82
2022/03/27 04:31:06;;;;;;;15.55;8.00;;;;;;;;;;5110709;27;20480;-82
2022/03/27 04:33:33;;;;;;;14.95;7.15;;;;;;;;;;5115328;27;20052;-82
2022/03/27 04:36:02;;;;;;;15.30;7.20;;;;;;;;;;5126979;27;20055;-82
2022/03/27 04:38:28;;;;;;;16.15;7.63;;;;;;;;;;5113829;27;20036;-82
2022/03/27 04:40:55;;;;;;;15.43;7.53;;;;;;;;;;5132486;27;20502;-82
2022/03/27 04:43:22;;;;;;;15.82;7.95;;;;;;;;;;5135446;27;20043;-82
2022/03/27 04:45:49;;;;;;;14.30;7.03;;;;;;;;;;5135260;27;20146;-82
2022/03/27 04:48:16;;;;;;;16.42;7.40;;;;;;;;;;5106000;27;20891;-82
2022/03/27 04:50:44;;;;;;;14.75;7.28;;;;;;;;;;5107483;27;20620;-82
2022/03/27 04:53:10;;;;;;;15.90;7.53;;;;;;;;;;5106374;28;20048;-82
2022/03/27 04:55:37;;;;;;;16.52;6.90;;;;;;;;;;5132973;27;20056;-82
2022/03/27 04:58:06;;;;;;;14.60;7.43;;;;;;;;;;5111459;28;20110;-82
2022/03/27 05:00:33;;;;;;;14.13;7.28;;;;;;;;;;5125143;27;20036;-82
2022/03/27 05:02:59;;;;;;;16.77;7.90;;;;;;;;;;5104201;28;20056;-82
2022/03/27 05:05:26;;;;;;;17.77;8.10;;;;;;;;;;5107598;28;20048;-81
2022/03/27 05:07:53;;;;;;;16.38;7.70;;;;;;;;;;5117334;27;20544;-82
2022/03/27 05:10:20;;;;;;;16.00;7.40;;;;;;;;;;5118923;27;20050;-81
2022/03/27 05:12:46;;;;;;;16.65;7.75;;;;;;;;;;5137689;27;20055;-82
2022/03/27 05:15:13;;;;;;;16.75;7.82;;;;;;;;;;5111103;27;20047;-82
2022/03/27 05:17:53;;;;;;;15.68;7.70;;;;;;;;;;5128252;27;20056;-82
2022/03/27 05:20:20;;;;;;;16.80;7.78;;;;;;;;;;5116755;27;20059;-82
2022/03/27 05:22:46;;;;;;;15.98;7.15;;;;;;;;;;5098567;28;20056;-81
2022/03/27 05:25:13;;;;;;;16.13;7.35;;;;;;;;;;5107847;27;20036;-82
2022/03/27 05:27:43;;;;;;;15.20;7.90;;;;;;;;;;5112777;28;20923;-82
2022/03/27 05:30:10;;;;;;;14.45;7.18;;;;;;;;;;5111561;27;20052;-82
2022/03/27 05:32:37;;;;;;;14.70;7.38;;;;;;;;;;5136534;27;20055;-82
2022/03/27 05:35:03;;;;;;;13.43;7.40;;;;;;;;;;5129647;27;20052;-82
2022/03/27 05:37:33;;;;;;;12.57;6.40;;;;;;;;;;5098990;27;20056;-82
2022/03/27 05:40:01;;;;;;;13.73;7.27;;;;;;;;;;5112282;27;20498;-82
2022/03/27 05:42:27;;;;;;;16.05;7.00;;;;;;;;;;5114314;27;20132;-82
2022/03/27 05:44:53;;;;;;;14.45;6.82;;;;;;;;;;5118952;27;20063;-82
2022/03/27 05:47:20;;;;;;;20.70;7.63;;;;;;;;;;5113476;27;20047;-82
2022/03/27 05:49:47;;;;;;;14.38;7.07;;;;;;;;;;5114682;27;20047;-82
2022/03/27 05:52:16;;;;;;;15.65;7.20;;;;;;;;;;5126336;27;20101;-82
2022/03/27 05:54:43;;;;;;;13.27;7.05;;;;;;;;;;5128826;27;20059;-82
2022/03/27 05:57:09;;;;;;;14.25;7.47;;;;;;;;;;5119653;27;20051;-82
2022/03/27 05:59:35;;;;;;;13.55;6.85;;;;;;;;;;5110400;27;20134;-82
2022/03/27 06:02:02;;;;;;;13.63;7.18;;;;;;;;;;5115904;27;20079;-81
2022/03/27 06:04:29;;;;;;;14.23;6.55;;;;;;;;;;5133117;27;20053;-82
2022/03/27 06:06:55;;;;;;;15.23;6.95;;;;;;;;;;5135886;27;20227;-82
2022/03/27 06:09:22;;;;;;;13.00;6.80;;;;;;;;;;5114253;28;20056;-82
2022/03/27 06:11:49;;;;;;;17.67;7.22;;;;;;;;;;5128567;27;20048;-82
2022/03/27 06:14:15;;;;;;;16.23;7.22;;;;;;;;;;5111527;27;20105;-82
2022/03/27 06:16:41;;;;;;;13.75;7.22;;;;;;;;;;5111605;27;20047;-82
2022/03/27 06:19:08;;;;;;;15.35;6.80;;;;;;;;;;5121353;27;20032;-83
2022/03/27 06:21:37;;;;;;;13.70;6.80;;;;;;;;;;5136776;27;20055;-82
2022/03/27 06:24:04;;;;;;;14.00;6.88;;;;;;;;;;5121537;27;20036;-82
2022/03/27 06:26:30;;;;;;;14.55;7.05;;;;;;;;;;5129306;27;20132;-82
2022/03/27 06:28:59;;;;;;;12.02;6.65;;;;;;;;;;5114811;27;20354;-82
2022/03/27 06:31:25;;;;;;;12.65;6.35;;;;;;;;;;5105275;27;20100;-82
2022/03/27 06:33:51;;;;;;;14.57;6.70;;;;;;;;;;5112168;27;20510;-82
2022/03/27 06:36:18;;;;;;;12.13;6.57;;;;;;;;;;5139162;27;20078;-82
2022/03/27 06:38:44;;;;;;;12.57;6.63;;;;;;;;;;5122922;27;21224;-82
2022/03/27 06:41:11;;;;;;;12.23;6.25;;;;;;;;;;5105024;27;20040;-82
2022/03/27 06:43:37;;;;;;;14.63;7.65;;;;;;;;;;5111838;27;20727;-82
2022/03/27 06:46:05;;;;;;;13.35;6.72;;;;;;;;;;5129173;27;20074;-82
2022/03/27 06:48:32;;;;;;;14.45;7.60;;;;;;;;;;5104450;27;20043;-82
2022/03/27 06:50:58;;;;;;;13.45;6.78;;;;;;;;;;5118951;27;20513;-82
2022/03/27 06:53:25;;;;;;;13.07;6.70;;;;;;;;;;5100686;28;20056;-82
2022/03/27 06:55:51;;;;;;;12.73;6.75;;;;;;;;;;5134998;27;20074;-83
2022/03/27 06:58:18;;;;;;;12.43;6.40;;;;;;;;;;5118024;27;20066;-83
2022/03/27 07:03:31;;;;;;;14.18;6.90;;;;;;;;;;5138096;27;20051;-83
2022/03/27 07:05:57;;;;;;;11.80;6.18;;;;;;;;;;5132431;27;20846;-83
2022/03/27 07:08:23;;;;;;;13.95;6.82;;;;;;;;;;5140485;27;20048;-83
2022/03/27 07:10:50;;;;;;;12.43;6.25;;;;;;;;;;5125649;27;20037;-83
2022/03/27 07:13:17;;;;;;;12.75;6.97;;;;;;;;;;5131975;27;20081;-84
2022/03/27 07:15:44;;;;;;;11.55;6.32;;;;;;;;;;5123875;27;20078;-83
2022/03/27 07:18:11;;;;;;;14.00;6.43;;;;;;;;;;5146151;27;20074;-83
2022/03/27 07:20:41;;;;;;;13.13;6.55;;;;;;;;;;5125231;28;20044;-83
2022/03/27 07:23:09;;;;;;;12.95;6.20;;;;;;;;;;5123604;27;20062;-83
2022/03/27 07:25:36;;;;;;;12.60;5.95;;;;;;;;;;5123281;27;20032;-83
2022/03/27 07:28:04;;;;;;;14.52;7.05;;;;;;;;;;5132467;27;20044;-83
2022/03/27 07:30:30;;;;;;;14.85;7.50;;;;;;;;;;5110553;27;20083;-83
2022/03/27 07:32:57;;;;;;;15.10;5.97;;;;;;;;;;5121861;27;20039;-82
2022/03/27 07:35:26;;;;;;;13.32;7.20;;;;;;;;;;5127699;27;20059;-83
2022/03/27 07:37:53;;;;;;;12.27;6.90;;;;;;;;;;5116726;28;21424;-83
2022/03/27 07:40:20;;;;;;;12.38;6.07;;;;;;;;;;5120829;27;20062;-83
2022/03/27 07:42:49;;;;;;;11.93;6.32;;;;;;;;;;5125713;27;20048;-83
2022/03/27 07:45:18;;;;;;;11.63;6.32;;;;;;;;;;5142793;27;20044;-83
2022/03/27 07:47:45;;;;;;;12.98;6.53;;;;;;;;;;5117799;27;20066;-83
2022/03/27 07:50:12;;;;;;;12.73;6.53;;;;;;;;;;5121540;27;20059;-83
2022/03/27 07:52:38;;;;;;;12.25;6.32;;;;;;;;;;5117664;27;20059;-84
2022/03/27 07:55:06;;;;;;;12.70;6.47;;;;;;;;;;5120328;27;20098;-83
2022/03/27 07:57:32;;;;;;;11.77;6.28;;;;;;;;;;5114432;27;20125;-83
2022/03/27 07:59:59;;;;;;;12.15;6.93;;;;;;;;;;5142505;27;20128;-84
2022/03/27 08:02:26;;;;;;;12.00;6.47;;;;;;;;;;5124471;27;20048;-84
2022/03/27 08:04:53;;;;;;;11.32;6.00;;;;;;;;;;5138868;27;20101;-84
2022/03/27 08:07:19;;;;;;;11.45;6.20;;;;;;;;;;5109989;28;20067;-84
2022/03/27 08:09:46;;;;;;;13.30;6.38;;;;;;;;;;5130370;27;21253;-84
2022/03/27 08:12:12;;;;;;;11.52;6.50;;;;;;;;;;5108352;28;20981;-84
2022/03/27 08:14:39;;;;;;;13.10;6.32;;;;;;;;;;5109333;28;20052;-84
2022/03/27 08:17:06;;;;;;;10.25;5.85;;;;;;;;;;5108137;27;20040;-84
2022/03/27 08:19:33;;;;;;;9.63;5.60;;;;;;;;;;5115112;27;20056;-84
2022/03/27 08:22:01;;;;;;;11.07;6.18;;;;;;;;;;5119571;27;20056;-83
2022/03/27 08:24:28;;;;;;;11.73;6.47;;;;;;;;;;5107741;27;20038;-84
2022/03/27 08:26:57;;;;;;;11.57;6.45;;;;;;;;;;5123673;27;20095;-84
2022/03/27 08:29:27;;;;;;;11.40;6.10;;;;;;;;;;5123946;27;20066;-84
2022/03/27 08:31:54;;;;;;;10.68;5.88;;;;;;;;;;5117883;27;20563;-84
2022/03/27 08:34:23;;;;;;;12.07;6.47;;;;;;;;;;5131990;27;20135;-85
2022/03/27 08:36:50;;;;;;;11.52;6.60;;;;;;;;;;5119154;27;20097;-84
2022/03/27 08:39:16;;;;;;;11.55;6.20;;;;;;;;;;5124630;27;20114;-85
2022/03/27 08:41:43;;;;;;;11.48;6.22;;;;;;;;;;5117448;28;20101;-84
2022/03/27 08:44:10;;;;;;;13.23;6.40;;;;;;;;;;5135221;27;20032;-85
2022/03/27 08:46:41;;;;;;;14.52;6.78;;;;;;;;;;5118116;27;20437;-84
2022/03/27 08:49:18;;;;;;;12.85;7.05;;;;;;;;;;5119584;27;20062;-85
2022/03/27 08:52:03;;;;;;;11.20;6.18;;;;;;;;;;5119955;28;20040;-85
2022/03/27 08:54:35;;;;;;;10.38;6.28;;;;;;;;;;5133675;27;20097;-84
2022/03/27 08:57:21;;;;;;;10.25;6.25;;;;;;;;;;5105329;27;20526;-85
2022/03/27 08:59:47;;;;;;;10.75;6.55;;;;;;;;;;5130153;27;20052;-85
2022/03/27 09:02:14;;;;;;;11.82;6.00;;;;;;;;;;5109402;27;20055;-85
2022/03/27 09:04:41;;;;;;;10.07;6.18;;;;;;;;;;5102114;27;20052;-85
2022/03/27 09:07:07;;;;;;;11.15;5.85;;;;;;;;;;5103367;27;20039;-85
2022/03/27 09:09:36;;;;;;;11.27;6.28;;;;;;;;;;5111902;27;20662;-85
2022/03/27 09:12:04;;;;;;;10.85;6.45;;;;;;;;;;5107007;27;20066;-86
2022/03/27 09:14:32;;;;;;;12.00;6.38;;;;;;;;;;5123031;27;20587;-86
2022/03/27 09:17:08;;;;;;;12.13;6.20;;;;;;;;;;5112330;27;20056;-85
2022/03/27 09:19:39;;;;;;;12.82;6.32;;;;;;;;;;5121040;27;20068;-86
2022/03/27 09:22:25;;;;;;;9.90;5.75;;;;;;;;;;5108556;27;20052;-86
2022/03/27 09:24:59;;;;;;;9.68;5.70;;;;;;;;;;5114184;27;20052;-86
2022/03/27 09:27:30;;;;;;;10.75;5.82;;;;;;;;;;5115743;27;20631;-86
2022/03/27 09:30:09;;;;;;;11.90;6.50;;;;;;;;;;5145700;22;20082;-85
2022/03/27 09:32:45;;;;;;;10.75;6.32;;;;;;;;;;5109585;28;20059;-86
2022/03/27 09:35:17;;;;;;;10.88;6.35;;;;;;;;;;5112830;27;20108;-86
2022/03/27 09:37:47;;;;;;;10.75;6.53;;;;;;;;;;5108801;27;20056;-86
2022/03/27 09:40:15;;;;;;;11.73;6.57;;;;;;;;;;5102238;28;20052;-86
2022/03/27 09:42:42;;;;;;;11.75;6.70;;;;;;;;;;5114153;28;20055;-86
2022/03/27 09:45:14;;;;;;;12.43;6.97;;;;;;;;;;5100450;28;20105;-86
2022/03/27 09:47:42;;;;;;;10.90;6.50;;;;;;;;;;5113905;28;20502;-86
2022/03/27 09:50:27;;;;;;;13.05;6.95;;;;;;;;;;5097418;27;20048;-85
2022/03/27 09:53:39;;;;;;;12.00;6.70;;;;;;;;;;5103299;27;20075;-86
2022/03/27 09:56:23;;;;;;;11.60;6.30;;;;;;;;;;5036119;28;20046;-86
2022/03/27 09:58:53;;;;;;;11.18;6.35;;;;;;;;;;5027911;28;20058;-85
2022/03/27 10:01:22;;;;;;;9.80;6.72;;;;;;;;;;5024541;28;20440;-86
2022/03/27 10:04:14;;;;;;;10.25;6.35;;;;;;;;;;5030637;28;20089;-86
2022/03/27 10:06:41;;;;;;;12.52;5.82;;;;;;;;;;5030395;28;20052;-86
2022/03/27 10:09:12;;;;;;;10.88;6.50;;;;;;;;;;5098308;27;20156;-85
2022/03/27 10:11:45;;;;;;;9.75;5.88;;;;;;;;;;5098589;28;20052;-86
2022/03/27 10:14:12;;;;;;;10.07;6.32;;;;;;;;;;5096719;28;20066;-86
2022/03/27 10:16:46;;;;;;;9.93;6.43;;;;;;;;;;5107947;28;20059;-87
2022/03/27 10:19:20;;;;;;;10.48;6.38;;;;;;;;;;5108971;28;20052;-85
2022/03/27 10:21:49;;;;;;;9.65;6.32;;;;;;;;;;5109474;28;20067;-87
2022/03/27 10:24:27;;;;;;;9.20;5.70;;;;;;;;;;5106055;28;20097;-85
2022/03/27 10:27:01;;;;;;;10.80;6.13;;;;;;;;;;5123776;27;20040;-86
2022/03/27 10:29:28;;;;;;;9.77;5.28;;;;;;;;;;5107802;28;20059;-86
2022/03/27 10:31:59;;;;;;;8.87;5.03;;;;;;;;;;5120098;27;20060;-86
2022/03/27 10:34:27;;;;;;;11.10;5.25;;;;;;;;;;5107376;27;20032;-87
2022/03/27 10:36:57;;;;;;;9.32;5.05;;;;;;;;;;5104854;27;20071;-87
2022/03/27 10:39:32;;;;;;;8.70;4.70;;;;;;;;;;5098426;27;20055;-86
2022/03/27 10:41:58;;;;;;;10.63;5.13;;;;;;;;;;5102853;28;20063;-86
2022/03/27 10:44:33;;;;;;;8.00;4.38;;;;;;;;;;5104336;28;20052;-87
2022/03/27 10:47:44;;;;;;;;;;;;;;;;;;;;;
2022/03/27 10:50:29;;;;;;;9.80;5.13;;;;;;;;;;5051446;28;20029;-86
2022/03/27 10:53:19;;;;;;;10.32;4.35;;;;;;;;;;5102759;28;20554;-86
2022/03/27 10:55:47;;;;;;;7.63;3.75;;;;;;;;;;5093792;28;20106;-86
2022/03/27 10:58:31;;;;;;;9.60;4.45;;;;;;;;;;5104602;28;20040;-86
2022/03/27 11:01:31;;;;;;;;;;;;;;;;;;;;;
2022/03/27 11:04:11;;;;;;;9.20;3.95;;;;;;;;;;5119248;27;20055;-82
2022/03/27 11:06:43;;;;;;;7.57;3.78;;;;;;;;;;5096282;28;20508;-87
2022/03/27 11:09:33;;;;;;;8.25;3.20;;;;;;;;;;5084392;28;20056;-88
2022/03/27 11:12:04;;;;;;;9.88;3.65;;;;;;;;;;5102321;27;20051;-86
2022/03/27 11:14:47;;;;;;;10.43;3.60;;;;;;;;;;5109703;28;20052;-86
2022/03/27 11:17:13;;;;;;;8.10;3.55;;;;;;;;;;5100683;28;20056;-86
2022/03/27 11:19:42;;;;;;;8.13;3.65;;;;;;;;;;5098209;28;20106;-88
2022/03/27 11:22:30;;;;;;;10.52;4.20;;;;;;;;;;5101891;28;20055;-85
2022/03/27 11:25:18;;;;;;;10.68;3.95;;;;;;;;;;5091663;28;20563;-86
2022/03/27 11:28:03;;;;;;;9.25;3.50;;;;;;;;;;5107458;28;20094;-86
2022/03/27 11:30:38;;;;;;;8.68;4.00;;;;;;;;;;5112702;27;20059;-86
2022/03/27 11:33:15;;;;;;;9.73;3.95;;;;;;;;;;5096598;28;20087;-86
2022/03/27 11:36:03;;;;;;;15.23;4.40;;;;;;;;;;5115575;27;20056;-89
2022/03/27 11:38:33;;;;;;;11.52;4.00;;;;;;;;;;5115695;27;20048;-87
2022/03/27 11:41:22;;;;;;;8.75;3.67;;;;;;;;;;5096559;27;20051;-86
2022/03/27 11:43:50;;;;;;;10.73;4.07;;;;;;;;;;5097716;28;20108;-86
2022/03/27 11:47:05;;;;;;;;;;;;;;;;;;;;;
2022/03/27 11:49:51;;;;;;;10.93;3.75;;;;;;;;;;5107946;28;20062;-86
2022/03/27 11:52:48;;;;;;;7.88;3.83;;;;;;;;;;5083305;28;20071;-87
2022/03/27 11:55:19;;;;;;;11.40;4.22;;;;;;;;;;5087437;27;20055;-86
2022/03/27 11:57:59;;;;;;;8.50;4.45;;;;;;;;;;5097184;28;20100;-86
2022/03/27 12:00:51;;;;;;;9.02;4.10;;;;;;;;;;5095318;28;20086;-85
2022/03/27 12:03:43;;;;;;;10.48;3.60;;;;;;;;;;5099200;28;20060;-88
2022/03/27 12:06:28;;;;;;;10.40;3.70;;;;;;;;;;5104724;28;20060;-86
2022/03/27 12:08:58;;;;;;;10.63;3.95;;;;;;;;;;5115327;28;20101;-85
2022/03/27 12:11:33;;;;;;;9.07;3.70;;;;;;;;;;5094916;28;20052;-86
2022/03/27 12:14:15;;;;;;;8.85;3.45;;;;;;;;;;5090297;28;20504;-86
2022/03/27 12:16:51;;;;;;;10.50;4.40;;;;;;;;;;5112464;28;20136;-86
2022/03/27 12:19:19;;;;;;;;;;;;;;;;;;5106420;28;20059;-86
2022/03/27 12:21:46;;;;;;;8.07;3.83;;;;;;;;;;5093323;28;46739;-85
2022/03/27 12:24:44;;;;;;;8.07;3.63;;;;;;;;;;5054976;28;20059;-85
2022/03/27 12:30:16;;;;;;;9.68;3.55;;;;;;;;;;5106867;27;20052;-87
2022/03/27 12:33:00;;;;;;;8.85;3.50;;;;;;;;;;5114945;28;20052;-87
2022/03/27 12:35:34;;;;;;;9.55;4.05;;;;;;;;;;5113185;28;20105;-86
2022/03/27 12:38:14;;;;;;;10.48;3.85;;;;;;;;;;5087456;28;20052;-86
2022/03/27 12:40:57;;;;;;;8.68;3.50;;;;;;;;;;5109488;27;20105;-87
2022/03/27 12:43:30;;;;;;;9.82;3.60;;;;;;;;;;5094216;28;20052;-87
2022/03/27 12:46:16;;;;;;;10.23;3.70;;;;;;;;;;5092829;28;20140;-87
2022/03/27 12:49:03;;;;;;;9.82;3.50;;;;;;;;;;5093701;28;20521;-87
2022/03/27 12:51:38;;;;;;;7.50;3.25;;;;;;;;;;5088566;28;20056;-87
2022/03/27 12:54:12;;;;;;;9.15;3.38;;;;;;;;;;5094838;27;20052;-87
2022/03/27 12:56:57;;;;;;;6.72;3.17;;;;;;;;;;5117229;27;20048;-86
2022/03/27 12:59:24;;;;;;;10.43;3.30;;;;;;;;;;5115810;27;20097;-87
2022/03/27 13:01:51;;;;;;;7.25;3.33;;;;;;;;;;5111794;28;20116;-87
2022/03/27 13:04:18;;;;;;;8.07;3.38;;;;;;;;;;5111787;27;20060;-86
2022/03/27 13:06:58;;;;;;;10.05;3.75;;;;;;;;;;5125888;27;20048;-85
2022/03/27 13:09:35;;;;;;;6.90;3.10;;;;;;;;;;5108002;28;20059;-86
2022/03/27 13:12:10;;;;;;;9.07;3.38;;;;;;;;;;5123015;27;20060;-84
2022/03/27 13:14:46;;;;;;;7.63;3.08;;;;;;;;;;5114955;27;20044;-87
2022/03/27 13:17:13;;;;;;;7.95;3.22;;;;;;;;;;5104032;28;20060;-89
2022/03/27 13:19:43;;;;;;;7.72;3.30;;;;;;;;;;5121550;28;20063;-85
2022/03/27 13:22:10;;;;;;;7.40;2.80;;;;;;;;;;5103656;28;20071;-87
2022/03/27 13:24:37;;;;;;;10.65;3.50;;;;;;;;;;5104554;28;20044;-86
2022/03/27 13:27:05;;;;;;;8.20;2.88;;;;;;;;;;5122228;28;20876;-85
2022/03/27 13:29:32;;;;;;;9.38;2.83;;;;;;;;;;5103478;28;20044;-85
2022/03/27 13:31:59;;;;;;;7.95;3.22;;;;;;;;;;5123316;28;20052;-85
2022/03/27 13:34:26;;;;;;;11.45;3.47;;;;;;;;;;5121429;27;20044;-86
2022/03/27 13:36:53;;;;;;;8.55;3.20;;;;;;;;;;5122195;27;20060;-86
2022/03/27 13:39:20;;;;;;;9.30;3.50;;;;;;;;;;5103795;28;20067;-85
2022/03/27 13:44:35;;;;;;;10.73;3.65;;;;;;;;;;5122796;27;20055;-86
2022/03/27 13:47:07;;;;;;;10.15;3.60;;;;;;;;;;5096665;28;20070;-86
2022/03/27 13:49:39;;;;;;;9.15;3.42;;;;;;;;;;5119492;27;20105;-85
2022/03/27 13:52:21;;;;;;;8.50;3.30;;;;;;;;;;5112798;27;20061;-86
2022/03/27 13:54:47;;;;;;;12.30;3.17;;;;;;;;;;5109972;27;20991;-85
2022/03/27 13:57:14;;;;;;;13.10;3.50;;;;;;;;;;5100788;28;20051;-86
2022/03/27 13:59:40;;;;;;;11.77;3.63;;;;;;;;;;5099346;27;20057;-86
2022/03/27 14:02:09;;;;;;;9.73;3.13;;;;;;;;;;5100547;28;20060;-86
2022/03/27 14:04:35;;;;;;;12.23;3.58;;;;;;;;;;5111952;27;20072;-85
2022/03/27 14:07:03;;;;;;;10.35;3.00;;;;;;;;;;5102648;28;20037;-86
2022/03/27 14:09:30;;;;;;;12.90;3.42;;;;;;;;;;5111778;27;20048;-85
2022/03/27 14:11:56;;;;;;;10.38;2.92;;;;;;;;;;5119250;27;20105;-84
2022/03/27 14:14:23;;;;;;;9.30;3.25;;;;;;;;;;5109982;28;20032;-84
2022/03/27 14:16:52;;;;;;;10.32;3.25;;;;;;;;;;5094932;27;20059;-83
2022/03/27 14:19:19;;;;;;;11.10;3.92;;;;;;;;;;5112748;27;20052;-84
2022/03/27 14:21:46;;;;;;;9.63;3.25;;;;;;;;;;5104728;28;20056;-83
2022/03/27 14:24:13;;;;;;;12.23;3.30;;;;;;;;;;5110322;27;20179;-84
2022/03/27 14:26:39;;;;;;;10.55;3.50;;;;;;;;;;5111923;27;20048;-84
2022/03/27 14:29:06;;;;;;;14.57;3.85;;;;;;;;;;5120748;27;20521;-84
2022/03/27 14:31:35;;;;;;;10.85;3.40;;;;;;;;;;5099481;27;20060;-85
2022/03/27 14:34:02;;;;;;;11.23;3.72;;;;;;;;;;5102951;27;20195;-84
2022/03/27 14:36:29;;;;;;;12.77;3.53;;;;;;;;;;5097627;28;20074;-85
2022/03/27 14:38:55;;;;;;;12.80;3.88;;;;;;;;;;5102552;27;20051;-84
2022/03/27 14:41:22;;;;;;;11.27;3.40;;;;;;;;;;5108937;27;20053;-84
2022/03/27 14:43:48;;;;;;;9.70;3.58;;;;;;;;;;5094002;27;20102;-84
2022/03/27 14:46:15;;;;;;;11.57;3.45;;;;;;;;;;5095811;27;20078;-85
2022/03/27 14:48:42;;;;;;;12.43;3.63;;;;;;;;;;5091041;28;20048;-85
2022/03/27 14:51:08;;;;;;;14.05;3.85;;;;;;;;;;5090863;28;20056;-85
2022/03/27 14:55:57;;;;;;;16.25;4.45;;;;;;;;;;5109029;27;20049;-85
2022/03/27 14:56:21;;;;;;;12.63;4.75;;;;;;;;;;5116505;27;20726;-85
2022/03/27 14:59:08;;;;;;;8.88;3.20;;;;;;;;;;5107023;27;20130;-86
2022/03/27 15:01:35;;;;;;;14.52;3.47;;;;;;;;;;5086310;27;20060;-86
2022/03/27 15:04:02;;;;;;;12.93;4.13;;;;;;;;;;5108651;28;20051;-85